sensor_id;sensor_type;location;lat;lon;timestamp;P1;durP1;ratioP1;P2;durP2;ratioP2
37379;SDS011;23252;-33.992;18.480;2022-09-27T00:01:42;5.10;;;1.57;;
37379;SDS011;23252;-33.992;18.480;2022-09-27T00:04:10;7.73;;;1.10;;
37379;SDS011;23252;-33.992;18.480;2022-09-27T00:06:36;8.00;;;1.70;;
37379;SDS011;23252;-33.992;18.480;2022-09-27T00:09:03;7.37;;;1.23;;
37379;SDS011;23252;-33.992;18.480;2022-09-27T00:11:34;2.57;;;0.90;;
37379;SDS011;23252;-33.992;18.480;2022-09-27T00:14:05;4.75;;;1.10;;
37379;SDS011;23252;-33.992;18.480;2022-09-27T00:16:34;2.72;;;1.10;;
37379;SDS011;23252;-33.992;18.480;2022-09-27T00:19:10;2.47;;;0.77;;
37379;SDS011;23252;-33.992;18.480;2022-09-27T00:21:41;3.92;;;1.05;;
37379;SDS011;23252;-33.992;18.480;2022-09-27T00:26:38;3.30;;;1.17;;
37379;SDS011;23252;-33.992;18.480;2022-09-27T00:29:05;5.00;;;1.50;;
37379;SDS011;23252;-33.992;18.480;2022-09-27T00:31:32;5.15;;;1.60;;
37379;SDS011;23252;-33.992;18.480;2022-09-27T00:33:59;2.92;;;1.85;;
37379;SDS011;23252;-33.992;18.480;2022-09-27T00:36:28;6.32;;;2.03;;
37379;SDS011;23252;-33.992;18.480;2022-09-27T00:38:56;8.52;;;2.17;;
37379;SDS011;23252;-33.992;18.480;2022-09-27T00:41:29;7.82;;;2.25;;
37379;SDS011;23252;-33.992;18.480;2022-09-27T00:43:58;6.72;;;2.58;;
37379;SDS011;23252;-33.992;18.480;2022-09-27T00:46:37;6.57;;;2.42;;
37379;SDS011;23252;-33.992;18.480;2022-09-27T00:51:52;7.25;;;2.17;;
37379;SDS011;23252;-33.992;18.480;2022-09-27T00:54:27;4.83;;;2.43;;
37379;SDS011;23252;-33.992;18.480;2022-09-27T00:56:55;7.00;;;2.55;;
37379;SDS011;23252;-33.992;18.480;2022-09-27T00:59:27;6.28;;;2.65;;
37379;SDS011;23252;-33.992;18.480;2022-09-27T01:02:08;6.68;;;2.80;;
37379;SDS011;23252;-33.992;18.480;2022-09-27T01:04:35;6.82;;;2.45;;
37379;SDS011;23252;-33.992;18.480;2022-09-27T01:07:04;4.57;;;2.10;;
37379;SDS011;23252;-33.992;18.480;2022-09-27T01:09:31;7.72;;;2.55;;
37379;SDS011;23252;-33.992;18.480;2022-09-27T01:12:18;6.70;;;2.28;;
37379;SDS011;23252;-33.992;18.480;2022-09-27T01:15:00;6.40;;;2.65;;
37379;SDS011;23252;-33.992;18.480;2022-09-27T01:23:57;3.78;;;1.63;;
37379;SDS011;23252;-33.992;18.480;2022-09-27T01:31:41;6.85;;;1.27;;
37379;SDS011;23252;-33.992;18.480;2022-09-27T01:35:17;2.58;;;1.20;;
37379;SDS011;23252;-33.992;18.480;2022-09-27T01:43:14;3.90;;;1.30;;
37379;SDS011;23252;-33.992;18.480;2022-09-27T01:48:19;6.57;;;1.55;;
37379;SDS011;23252;-33.992;18.480;2022-09-27T01:50:50;4.60;;;1.73;;
37379;SDS011;23252;-33.992;18.480;2022-09-27T01:53:19;4.13;;;1.52;;
37379;SDS011;23252;-33.992;18.480;2022-09-27T01:55:53;9.18;;;2.05;;
37379;SDS011;23252;-33.992;18.480;2022-09-27T01:58:23;4.72;;;1.80;;
37379;SDS011;23252;-33.992;18.480;2022-09-27T02:00:57;6.20;;;2.28;;
37379;SDS011;23252;-33.992;18.480;2022-09-27T02:03:28;8.48;;;2.28;;
37379;SDS011;23252;-33.992;18.480;2022-09-27T02:06:14;6.85;;;2.00;;
37379;SDS011;23252;-33.992;18.480;2022-09-27T02:08:59;10.25;;;2.58;;
37379;SDS011;23252;-33.992;18.480;2022-09-27T02:11:28;12.07;;;2.42;;
37379;SDS011;23252;-33.992;18.480;2022-09-27T02:16:53;7.00;;;2.10;;
37379;SDS011;23252;-33.992;18.480;2022-09-27T02:25:19;5.15;;;1.95;;
37379;SDS011;23252;-33.992;18.480;2022-09-27T02:27:27;3.42;;;1.58;;
37379;SDS011;23252;-33.992;18.480;2022-09-27T02:30:09;4.72;;;1.40;;
37379;SDS011;23252;-33.992;18.480;2022-09-27T02:32:38;6.20;;;2.10;;
37379;SDS011;23252;-33.992;18.480;2022-09-27T02:35:09;5.60;;;1.52;;
37379;SDS011;23252;-33.992;18.480;2022-09-27T02:37:42;5.35;;;2.47;;
37379;SDS011;23252;-33.992;18.480;2022-09-27T02:40:09;10.93;;;3.03;;
37379;SDS011;23252;-33.992;18.480;2022-09-27T02:42:35;8.30;;;2.97;;
37379;SDS011;23252;-33.992;18.480;2022-09-27T02:45:03;7.20;;;2.30;;
37379;SDS011;23252;-33.992;18.480;2022-09-27T02:47:41;9.65;;;3.10;;
37379;SDS011;23252;-33.992;18.480;2022-09-27T02:53:28;8.65;;;3.30;;
37379;SDS011;23252;-33.992;18.480;2022-09-27T03:05:03;8.82;;;3.60;;
37379;SDS011;23252;-33.992;18.480;2022-09-27T03:07:15;11.85;;;4.50;;
37379;SDS011;23252;-33.992;18.480;2022-09-27T03:09:43;12.70;;;4.13;;
37379;SDS011;23252;-33.992;18.480;2022-09-27T03:12:13;12.65;;;4.18;;
37379;SDS011;23252;-33.992;18.480;2022-09-27T03:14:44;10.15;;;4.07;;
37379;SDS011;23252;-33.992;18.480;2022-09-27T03:17:11;11.90;;;4.60;;
37379;SDS011;23252;-33.992;18.480;2022-09-27T03:19:38;14.88;;;4.68;;
37379;SDS011;23252;-33.992;18.480;2022-09-27T03:22:04;15.67;;;5.30;;
37379;SDS011;23252;-33.992;18.480;2022-09-27T03:24:31;11.05;;;4.53;;
37379;SDS011;23252;-33.992;18.480;2022-09-27T03:26:58;12.83;;;4.93;;
37379;SDS011;23252;-33.992;18.480;2022-09-27T03:29:24;12.80;;;5.10;;
37379;SDS011;23252;-33.992;18.480;2022-09-27T03:31:51;16.67;;;5.07;;
37379;SDS011;23252;-33.992;18.480;2022-09-27T03:34:18;12.75;;;5.50;;
37379;SDS011;23252;-33.992;18.480;2022-09-27T03:36:47;18.42;;;5.72;;
37379;SDS011;23252;-33.992;18.480;2022-09-27T03:39:14;9.90;;;5.47;;
37379;SDS011;23252;-33.992;18.480;2022-09-27T03:41:41;11.73;;;5.37;;
37379;SDS011;23252;-33.992;18.480;2022-09-27T03:44:08;9.00;;;4.90;;
37379;SDS011;23252;-33.992;18.480;2022-09-27T03:46:34;13.90;;;5.13;;
37379;SDS011;23252;-33.992;18.480;2022-09-27T03:49:01;11.88;;;5.22;;
37379;SDS011;23252;-33.992;18.480;2022-09-27T03:51:28;12.33;;;5.47;;
37379;SDS011;23252;-33.992;18.480;2022-09-27T03:53:54;20.55;;;6.82;;
37379;SDS011;23252;-33.992;18.480;2022-09-27T03:56:21;11.40;;;5.32;;
37379;SDS011;23252;-33.992;18.480;2022-09-27T03:58:48;14.77;;;6.40;;
37379;SDS011;23252;-33.992;18.480;2022-09-27T04:01:14;16.30;;;7.10;;
37379;SDS011;23252;-33.992;18.480;2022-09-27T04:03:41;10.37;;;6.20;;
37379;SDS011;23252;-33.992;18.480;2022-09-27T04:06:07;12.37;;;6.10;;
37379;SDS011;23252;-33.992;18.480;2022-09-27T04:08:34;14.33;;;6.20;;
37379;SDS011;23252;-33.992;18.480;2022-09-27T04:11:00;11.83;;;6.13;;
37379;SDS011;23252;-33.992;18.480;2022-09-27T04:13:28;12.32;;;5.90;;
37379;SDS011;23252;-33.992;18.480;2022-09-27T04:15:54;12.13;;;5.88;;
37379;SDS011;23252;-33.992;18.480;2022-09-27T04:18:21;15.57;;;6.05;;
37379;SDS011;23252;-33.992;18.480;2022-09-27T04:20:48;16.50;;;6.33;;
37379;SDS011;23252;-33.992;18.480;2022-09-27T04:23:14;14.43;;;6.80;;
37379;SDS011;23252;-33.992;18.480;2022-09-27T04:25:41;15.20;;;6.50;;
37379;SDS011;23252;-33.992;18.480;2022-09-27T04:28:07;15.17;;;7.00;;
37379;SDS011;23252;-33.992;18.480;2022-09-27T04:30:34;13.50;;;7.07;;
37379;SDS011;23252;-33.992;18.480;2022-09-27T04:33:01;19.50;;;7.93;;
37379;SDS011;23252;-33.992;18.480;2022-09-27T04:35:27;10.90;;;6.90;;
37379;SDS011;23252;-33.992;18.480;2022-09-27T04:38:12;19.08;;;7.40;;
37379;SDS011;23252;-33.992;18.480;2022-09-27T04:40:41;17.37;;;7.70;;
37379;SDS011;23252;-33.992;18.480;2022-09-27T04:43:09;14.85;;;7.88;;
37379;SDS011;23252;-33.992;18.480;2022-09-27T04:45:36;18.67;;;8.40;;
37379;SDS011;23252;-33.992;18.480;2022-09-27T04:48:02;17.60;;;8.33;;
37379;SDS011;23252;-33.992;18.480;2022-09-27T04:50:29;20.57;;;9.20;;
37379;SDS011;23252;-33.992;18.480;2022-09-27T04:52:56;18.92;;;8.40;;
37379;SDS011;23252;-33.992;18.480;2022-09-27T04:55:23;15.32;;;9.00;;
37379;SDS011;23252;-33.992;18.480;2022-09-27T04:57:50;17.67;;;9.25;;
37379;SDS011;23252;-33.992;18.480;2022-09-27T05:00:20;17.15;;;10.43;;
37379;SDS011;23252;-33.992;18.480;2022-09-27T05:05:14;19.27;;;9.45;;
37379;SDS011;23252;-33.992;18.480;2022-09-27T05:07:40;16.08;;;9.05;;
37379;SDS011;23252;-33.992;18.480;2022-09-27T05:10:08;15.27;;;6.40;;
37379;SDS011;23252;-33.992;18.480;2022-09-27T05:12:34;13.07;;;5.90;;
37379;SDS011;23252;-33.992;18.480;2022-09-27T05:15:02;14.50;;;6.25;;
37379;SDS011;23252;-33.992;18.480;2022-09-27T05:17:28;13.23;;;5.80;;
37379;SDS011;23252;-33.992;18.480;2022-09-27T05:19:55;15.25;;;5.32;;
37379;SDS011;23252;-33.992;18.480;2022-09-27T05:22:22;12.83;;;4.93;;
37379;SDS011;23252;-33.992;18.480;2022-09-27T05:24:48;10.95;;;5.25;;
37379;SDS011;23252;-33.992;18.480;2022-09-27T05:27:16;9.32;;;4.20;;
37379;SDS011;23252;-33.992;18.480;2022-09-27T05:29:45;10.35;;;4.20;;
37379;SDS011;23252;-33.992;18.480;2022-09-27T05:32:13;10.52;;;4.30;;
37379;SDS011;23252;-33.992;18.480;2022-09-27T05:34:40;10.35;;;3.70;;
37379;SDS011;23252;-33.992;18.480;2022-09-27T05:37:07;10.90;;;3.95;;
37379;SDS011;23252;-33.992;18.480;2022-09-27T05:39:34;8.05;;;4.15;;
37379;SDS011;23252;-33.992;18.480;2022-09-27T05:42:00;7.90;;;4.03;;
37379;SDS011;23252;-33.992;18.480;2022-09-27T05:44:29;9.07;;;3.78;;
37379;SDS011;23252;-33.992;18.480;2022-09-27T05:46:55;8.60;;;4.00;;
37379;SDS011;23252;-33.992;18.480;2022-09-27T05:49:27;10.90;;;4.60;;
37379;SDS011;23252;-33.992;18.480;2022-09-27T05:51:54;10.93;;;4.63;;
37379;SDS011;23252;-33.992;18.480;2022-09-27T05:54:20;10.10;;;4.40;;
37379;SDS011;23252;-33.992;18.480;2022-09-27T05:56:47;10.47;;;4.47;;
37379;SDS011;23252;-33.992;18.480;2022-09-27T05:59:18;9.57;;;3.50;;
37379;SDS011;23252;-33.992;18.480;2022-09-27T06:01:45;11.13;;;4.20;;
37379;SDS011;23252;-33.992;18.480;2022-09-27T06:04:11;7.90;;;4.32;;
37379;SDS011;23252;-33.992;18.480;2022-09-27T06:06:38;11.90;;;4.77;;
37379;SDS011;23252;-33.992;18.480;2022-09-27T06:09:04;8.13;;;4.50;;
37379;SDS011;23252;-33.992;18.480;2022-09-27T06:11:35;12.18;;;4.68;;
37379;SDS011;23252;-33.992;18.480;2022-09-27T06:14:02;10.03;;;4.70;;
37379;SDS011;23252;-33.992;18.480;2022-09-27T06:16:29;12.75;;;5.15;;
37379;SDS011;23252;-33.992;18.480;2022-09-27T06:18:55;13.27;;;5.77;;
37379;SDS011;23252;-33.992;18.480;2022-09-27T06:21:22;13.10;;;5.53;;
37379;SDS011;23252;-33.992;18.480;2022-09-27T06:23:50;14.10;;;4.93;;
37379;SDS011;23252;-33.992;18.480;2022-09-27T06:26:19;15.77;;;5.47;;
37379;SDS011;23252;-33.992;18.480;2022-09-27T06:28:46;12.10;;;5.05;;
37379;SDS011;23252;-33.992;18.480;2022-09-27T06:31:15;10.63;;;4.90;;
37379;SDS011;23252;-33.992;18.480;2022-09-27T06:33:42;14.17;;;4.93;;
37379;SDS011;23252;-33.992;18.480;2022-09-27T06:36:08;15.15;;;5.90;;
37379;SDS011;23252;-33.992;18.480;2022-09-27T06:38:35;17.75;;;5.30;;
37379;SDS011;23252;-33.992;18.480;2022-09-27T06:41:02;18.73;;;5.20;;
37379;SDS011;23252;-33.992;18.480;2022-09-27T06:43:30;16.92;;;4.93;;
37379;SDS011;23252;-33.992;18.480;2022-09-27T06:45:58;13.65;;;5.18;;
37379;SDS011;23252;-33.992;18.480;2022-09-27T06:48:29;10.40;;;5.07;;
37379;SDS011;23252;-33.992;18.480;2022-09-27T06:51:00;14.77;;;4.97;;
37379;SDS011;23252;-33.992;18.480;2022-09-27T06:53:29;10.45;;;4.75;;
37379;SDS011;23252;-33.992;18.480;2022-09-27T06:55:56;12.07;;;4.38;;
37379;SDS011;23252;-33.992;18.480;2022-09-27T06:58:27;14.93;;;4.38;;
37379;SDS011;23252;-33.992;18.480;2022-09-27T07:01:12;8.35;;;3.95;;
37379;SDS011;23252;-33.992;18.480;2022-09-27T07:03:39;9.88;;;4.20;;
37379;SDS011;23252;-33.992;18.480;2022-09-27T07:06:11;14.38;;;3.83;;
37379;SDS011;23252;-33.992;18.480;2022-09-27T07:08:56;10.45;;;2.90;;
37379;SDS011;23252;-33.992;18.480;2022-09-27T07:11:26;8.40;;;3.05;;
37379;SDS011;23252;-33.992;18.480;2022-09-27T07:13:55;9.90;;;2.80;;
37379;SDS011;23252;-33.992;18.480;2022-09-27T07:16:25;9.15;;;2.97;;
37379;SDS011;23252;-33.992;18.480;2022-09-27T07:19:12;6.63;;;2.83;;
37379;SDS011;23252;-33.992;18.480;2022-09-27T07:21:42;8.75;;;3.05;;
37379;SDS011;23252;-33.992;18.480;2022-09-27T07:26:59;10.50;;;2.80;;
37379;SDS011;23252;-33.992;18.480;2022-09-27T07:29:35;7.18;;;2.20;;
37379;SDS011;23252;-33.992;18.480;2022-09-27T07:32:11;8.75;;;2.20;;
37379;SDS011;23252;-33.992;18.480;2022-09-27T07:34:38;9.90;;;2.15;;
37379;SDS011;23252;-33.992;18.480;2022-09-27T07:37:04;11.95;;;1.85;;
37379;SDS011;23252;-33.992;18.480;2022-09-27T07:39:34;10.43;;;2.10;;
37379;SDS011;23252;-33.992;18.480;2022-09-27T07:42:01;6.70;;;1.80;;
37379;SDS011;23252;-33.992;18.480;2022-09-27T07:44:27;5.85;;;2.00;;
37379;SDS011;23252;-33.992;18.480;2022-09-27T07:46:54;10.43;;;2.10;;
37379;SDS011;23252;-33.992;18.480;2022-09-27T07:49:20;8.13;;;2.20;;
37379;SDS011;23252;-33.992;18.480;2022-09-27T07:51:47;7.80;;;1.70;;
37379;SDS011;23252;-33.992;18.480;2022-09-27T07:54:13;5.93;;;1.53;;
37379;SDS011;23252;-33.992;18.480;2022-09-27T07:56:40;10.37;;;1.10;;
37379;SDS011;23252;-33.992;18.480;2022-09-27T07:59:06;7.97;;;1.40;;
37379;SDS011;23252;-33.992;18.480;2022-09-27T08:01:33;9.70;;;1.60;;
37379;SDS011;23252;-33.992;18.480;2022-09-27T08:03:59;8.60;;;1.47;;
37379;SDS011;23252;-33.992;18.480;2022-09-27T08:06:26;7.10;;;1.90;;
37379;SDS011;23252;-33.992;18.480;2022-09-27T08:08:53;5.43;;;1.67;;
37379;SDS011;23252;-33.992;18.480;2022-09-27T08:11:20;6.13;;;1.07;;
37379;SDS011;23252;-33.992;18.480;2022-09-27T08:13:46;8.07;;;1.33;;
37379;SDS011;23252;-33.992;18.480;2022-09-27T08:16:16;5.72;;;1.10;;
37379;SDS011;23252;-33.992;18.480;2022-09-27T08:18:43;11.25;;;1.27;;
37379;SDS011;23252;-33.992;18.480;2022-09-27T08:21:10;9.00;;;1.07;;
37379;SDS011;23252;-33.992;18.480;2022-09-27T08:23:36;3.60;;;1.27;;
37379;SDS011;23252;-33.992;18.480;2022-09-27T08:26:03;1.45;;;0.70;;
37379;SDS011;23252;-33.992;18.480;2022-09-27T08:28:30;8.88;;;0.85;;
37379;SDS011;23252;-33.992;18.480;2022-09-27T08:30:56;6.05;;;1.27;;
37379;SDS011;23252;-33.992;18.480;2022-09-27T08:33:23;6.07;;;1.13;;
37379;SDS011;23252;-33.992;18.480;2022-09-27T08:35:51;5.03;;;0.88;;
37379;SDS011;23252;-33.992;18.480;2022-09-27T08:38:17;4.47;;;0.93;;
37379;SDS011;23252;-33.992;18.480;2022-09-27T08:40:54;3.83;;;0.82;;
37379;SDS011;23252;-33.992;18.480;2022-09-27T08:46:32;4.75;;;1.00;;
37379;SDS011;23252;-33.992;18.480;2022-09-27T08:49:16;6.57;;;1.65;;
37379;SDS011;23252;-33.992;18.480;2022-09-27T08:51:50;5.88;;;0.90;;
37379;SDS011;23252;-33.992;18.480;2022-09-27T08:54:28;7.38;;;1.20;;
37379;SDS011;23252;-33.992;18.480;2022-09-27T08:57:02;13.95;;;0.70;;
37379;SDS011;23252;-33.992;18.480;2022-09-27T08:59:35;3.28;;;0.80;;
37379;SDS011;23252;-33.992;18.480;2022-09-27T09:02:17;3.72;;;0.50;;
37379;SDS011;23252;-33.992;18.480;2022-09-27T09:04:47;5.75;;;1.08;;
37379;SDS011;23252;-33.992;18.480;2022-09-27T09:18:39;5.28;;;0.60;;
37379;SDS011;23252;-33.992;18.480;2022-09-27T09:21:27;4.03;;;0.50;;
37379;SDS011;23252;-33.992;18.480;2022-09-27T09:29:30;2.70;;;0.60;;
37379;SDS011;23252;-33.992;18.480;2022-09-27T09:35:35;6.20;;;0.68;;
37379;SDS011;23252;-33.992;18.480;2022-09-27T09:38:07;2.03;;;0.63;;
37379;SDS011;23252;-33.992;18.480;2022-09-27T09:40:42;1.98;;;0.60;;
37379;SDS011;23252;-33.992;18.480;2022-09-27T09:43:23;7.68;;;0.68;;
37379;SDS011;23252;-33.992;18.480;2022-09-27T09:45:57;5.88;;;0.70;;
37379;SDS011;23252;-33.992;18.480;2022-09-27T09:51:18;2.65;;;0.68;;
37379;SDS011;23252;-33.992;18.480;2022-09-27T09:53:53;4.95;;;0.80;;
37379;SDS011;23252;-33.992;18.480;2022-09-27T09:56:35;8.48;;;1.60;;
37379;SDS011;23252;-33.992;18.480;2022-09-27T09:59:19;2.97;;;0.70;;
37379;SDS011;23252;-33.992;18.480;2022-09-27T10:01:55;3.05;;;0.80;;
37379;SDS011;23252;-33.992;18.480;2022-09-27T10:04:27;2.08;;;0.50;;
37379;SDS011;23252;-33.992;18.480;2022-09-27T10:06:54;3.17;;;0.77;;
37379;SDS011;23252;-33.992;18.480;2022-09-27T10:09:25;5.15;;;1.20;;
37379;SDS011;23252;-33.992;18.480;2022-09-27T10:11:58;3.38;;;0.80;;
37379;SDS011;23252;-33.992;18.480;2022-09-27T10:14:25;4.55;;;0.85;;
37379;SDS011;23252;-33.992;18.480;2022-09-27T10:16:58;5.65;;;0.88;;
37379;SDS011;23252;-33.992;18.480;2022-09-27T10:19:29;9.07;;;1.35;;
37379;SDS011;23252;-33.992;18.480;2022-09-27T10:21:58;9.20;;;1.23;;
37379;SDS011;23252;-33.992;18.480;2022-09-27T10:24:28;6.28;;;0.82;;
37379;SDS011;23252;-33.992;18.480;2022-09-27T10:27:14;2.30;;;0.80;;
37379;SDS011;23252;-33.992;18.480;2022-09-27T10:29:41;2.40;;;0.77;;
37379;SDS011;23252;-33.992;18.480;2022-09-27T10:32:18;5.55;;;0.77;;
37379;SDS011;23252;-33.992;18.480;2022-09-27T10:34:49;3.35;;;0.80;;
37379;SDS011;23252;-33.992;18.480;2022-09-27T10:37:17;4.95;;;1.08;;
37379;SDS011;23252;-33.992;18.480;2022-09-27T10:39:47;4.45;;;0.90;;
37379;SDS011;23252;-33.992;18.480;2022-09-27T10:44:46;6.93;;;1.73;;
37379;SDS011;23252;-33.992;18.480;2022-09-27T10:47:16;2.60;;;0.82;;
37379;SDS011;23252;-33.992;18.480;2022-09-27T10:49:47;3.47;;;0.80;;
37379;SDS011;23252;-33.992;18.480;2022-09-27T10:52:18;3.00;;;0.70;;
37379;SDS011;23252;-33.992;18.480;2022-09-27T10:54:53;6.40;;;1.38;;
37379;SDS011;23252;-33.992;18.480;2022-09-27T10:57:27;2.58;;;0.90;;
37379;SDS011;23252;-33.992;18.480;2022-09-27T10:59:56;4.00;;;0.77;;
37379;SDS011;23252;-33.992;18.480;2022-09-27T11:02:29;6.75;;;1.15;;
37379;SDS011;23252;-33.992;18.480;2022-09-27T11:05:14;4.47;;;1.00;;
37379;SDS011;23252;-33.992;18.480;2022-09-27T11:07:56;2.67;;;0.50;;
37379;SDS011;23252;-33.992;18.480;2022-09-27T11:10:29;5.63;;;1.17;;
37379;SDS011;23252;-33.992;18.480;2022-09-27T11:16:22;5.70;;;1.42;;
37379;SDS011;23252;-33.992;18.480;2022-09-27T11:24:19;5.68;;;0.80;;
37379;SDS011;23252;-33.992;18.480;2022-09-27T11:41:29;4.75;;;0.63;;
37379;SDS011;23252;-33.992;18.480;2022-09-27T11:47:17;7.15;;;1.17;;
37379;SDS011;23252;-33.992;18.480;2022-09-27T11:50:32;3.65;;;0.93;;
37379;SDS011;23252;-33.992;18.480;2022-09-27T11:58:14;6.82;;;1.00;;
37379;SDS011;23252;-33.992;18.480;2022-09-27T12:01:44;4.57;;;1.10;;
37379;SDS011;23252;-33.992;18.480;2022-09-27T12:09:11;4.70;;;0.75;;
37379;SDS011;23252;-33.992;18.480;2022-09-27T12:11:52;3.75;;;0.85;;
37379;SDS011;23252;-33.992;18.480;2022-09-27T12:14:41;5.80;;;0.93;;
37379;SDS011;23252;-33.992;18.480;2022-09-27T12:17:16;4.70;;;1.08;;
37379;SDS011;23252;-33.992;18.480;2022-09-27T12:22:15;3.33;;;1.00;;
37379;SDS011;23252;-33.992;18.480;2022-09-27T12:24:56;3.20;;;1.00;;
37379;SDS011;23252;-33.992;18.480;2022-09-27T12:30:05;2.53;;;0.60;;
37379;SDS011;23252;-33.992;18.480;2022-09-27T12:35:28;7.15;;;0.90;;
37379;SDS011;23252;-33.992;18.480;2022-09-27T12:38:03;2.65;;;0.63;;
37379;SDS011;23252;-33.992;18.480;2022-09-27T12:40:46;2.78;;;0.57;;
37379;SDS011;23252;-33.992;18.480;2022-09-27T12:43:22;8.85;;;1.67;;
37379;SDS011;23252;-33.992;18.480;2022-09-27T12:51:02;1.95;;;0.80;;
37379;SDS011;23252;-33.992;18.480;2022-09-27T12:59:54;3.40;;;0.60;;
37379;SDS011;23252;-33.992;18.480;2022-09-27T13:05:34;3.40;;;1.20;;
37379;SDS011;23252;-33.992;18.480;2022-09-27T13:08:34;4.50;;;1.17;;
37379;SDS011;23252;-33.992;18.480;2022-09-27T13:14:01;4.88;;;1.30;;
37379;SDS011;23252;-33.992;18.480;2022-09-27T13:16:29;5.75;;;0.85;;
37379;SDS011;23252;-33.992;18.480;2022-09-27T13:19:12;1.88;;;0.75;;
37379;SDS011;23252;-33.992;18.480;2022-09-27T13:22:03;5.22;;;1.27;;
37379;SDS011;23252;-33.992;18.480;2022-09-27T13:24:48;6.65;;;2.08;;
37379;SDS011;23252;-33.992;18.480;2022-09-27T13:32:33;7.25;;;2.03;;
37379;SDS011;23252;-33.992;18.480;2022-09-27T13:37:45;8.27;;;2.13;;
37379;SDS011;23252;-33.992;18.480;2022-09-27T13:45:35;13.00;;;5.10;;
37379;SDS011;23252;-33.992;18.480;2022-09-27T13:48:10;8.45;;;2.33;;
37379;SDS011;23252;-33.992;18.480;2022-09-27T13:55:59;17.60;;;11.90;;
37379;SDS011;23252;-33.992;18.480;2022-09-27T13:58:33;5.78;;;1.30;;
37379;SDS011;23252;-33.992;18.480;2022-09-27T14:01:14;14.38;;;7.32;;
37379;SDS011;23252;-33.992;18.480;2022-09-27T14:03:51;5.35;;;1.70;;
37379;SDS011;23252;-33.992;18.480;2022-09-27T14:06:27;4.68;;;1.10;;
37379;SDS011;23252;-33.992;18.480;2022-09-27T14:09:02;4.97;;;1.48;;
37379;SDS011;23252;-33.992;18.480;2022-09-27T14:11:37;4.03;;;0.82;;
37379;SDS011;23252;-33.992;18.480;2022-09-27T14:16:54;4.93;;;1.15;;
37379;SDS011;23252;-33.992;18.480;2022-09-27T14:19:25;3.53;;;1.00;;
37379;SDS011;23252;-33.992;18.480;2022-09-27T14:21:52;3.08;;;0.70;;
37379;SDS011;23252;-33.992;18.480;2022-09-27T14:29:49;5.90;;;0.90;;
37379;SDS011;23252;-33.992;18.480;2022-09-27T14:32:45;3.55;;;0.70;;
37379;SDS011;23252;-33.992;18.480;2022-09-27T14:38:01;2.90;;;0.73;;
37379;SDS011;23252;-33.992;18.480;2022-09-27T14:40:31;6.75;;;1.10;;
37379;SDS011;23252;-33.992;18.480;2022-09-27T14:43:05;3.42;;;0.68;;
37379;SDS011;23252;-33.992;18.480;2022-09-27T14:45:38;3.10;;;0.80;;
37379;SDS011;23252;-33.992;18.480;2022-09-27T14:48:27;1.83;;;0.50;;
37379;SDS011;23252;-33.992;18.480;2022-09-27T14:53:40;4.55;;;0.80;;
37379;SDS011;23252;-33.992;18.480;2022-09-27T14:56:08;3.78;;;0.60;;
37379;SDS011;23252;-33.992;18.480;2022-09-27T14:58:53;3.00;;;0.50;;
37379;SDS011;23252;-33.992;18.480;2022-09-27T15:01:27;2.75;;;0.50;;
37379;SDS011;23252;-33.992;18.480;2022-09-27T15:04:02;4.78;;;0.70;;
37379;SDS011;23252;-33.992;18.480;2022-09-27T15:06:30;3.28;;;0.50;;
37379;SDS011;23252;-33.992;18.480;2022-09-27T15:09:03;3.47;;;1.02;;
37379;SDS011;23252;-33.992;18.480;2022-09-27T15:11:31;2.88;;;0.50;;
37379;SDS011;23252;-33.992;18.480;2022-09-27T15:13:59;2.47;;;0.70;;
37379;SDS011;23252;-33.992;18.480;2022-09-27T15:16:28;3.65;;;0.90;;
37379;SDS011;23252;-33.992;18.480;2022-09-27T15:19:15;5.78;;;1.30;;
37379;SDS011;23252;-33.992;18.480;2022-09-27T15:21:47;3.85;;;1.23;;
37379;SDS011;23252;-33.992;18.480;2022-09-27T15:27:22;4.30;;;0.95;;
37379;SDS011;23252;-33.992;18.480;2022-09-27T15:29:53;5.63;;;1.10;;
37379;SDS011;23252;-33.992;18.480;2022-09-27T15:32:23;6.40;;;0.65;;
37379;SDS011;23252;-33.992;18.480;2022-09-27T15:34:51;4.40;;;0.77;;
37379;SDS011;23252;-33.992;18.480;2022-09-27T15:37:36;5.57;;;0.77;;
37379;SDS011;23252;-33.992;18.480;2022-09-27T15:43:25;5.05;;;0.88;;
37379;SDS011;23252;-33.992;18.480;2022-09-27T15:46:45;3.40;;;0.50;;
37379;SDS011;23252;-33.992;18.480;2022-09-27T15:51:52;4.82;;;1.13;;
37379;SDS011;23252;-33.992;18.480;2022-09-27T15:54:24;3.97;;;0.90;;
37379;SDS011;23252;-33.992;18.480;2022-09-27T15:56:55;4.57;;;1.02;;
37379;SDS011;23252;-33.992;18.480;2022-09-27T15:59:33;2.95;;;1.00;;
37379;SDS011;23252;-33.992;18.480;2022-09-27T16:02:02;5.10;;;0.60;;
37379;SDS011;23252;-33.992;18.480;2022-09-27T16:04:40;3.65;;;0.90;;
37379;SDS011;23252;-33.992;18.480;2022-09-27T16:07:09;5.78;;;1.30;;
37379;SDS011;23252;-33.992;18.480;2022-09-27T16:09:39;5.90;;;1.13;;
37379;SDS011;23252;-33.992;18.480;2022-09-27T16:12:11;4.85;;;1.05;;
37379;SDS011;23252;-33.992;18.480;2022-09-27T16:14:41;5.38;;;1.25;;
37379;SDS011;23252;-33.992;18.480;2022-09-27T16:17:08;3.80;;;1.05;;
37379;SDS011;23252;-33.992;18.480;2022-09-27T16:19:37;18.90;;;1.48;;
37379;SDS011;23252;-33.992;18.480;2022-09-27T16:22:05;5.13;;;1.17;;
37379;SDS011;23252;-33.992;18.480;2022-09-27T16:24:34;3.45;;;1.35;;
37379;SDS011;23252;-33.992;18.480;2022-09-27T16:27:03;9.13;;;1.58;;
37379;SDS011;23252;-33.992;18.480;2022-09-27T16:29:29;6.30;;;1.38;;
37379;SDS011;23252;-33.992;18.480;2022-09-27T16:31:56;9.48;;;1.90;;
37379;SDS011;23252;-33.992;18.480;2022-09-27T16:34:26;11.18;;;1.58;;
37379;SDS011;23252;-33.992;18.480;2022-09-27T16:36:55;7.68;;;1.77;;
37379;SDS011;23252;-33.992;18.480;2022-09-27T16:39:27;10.05;;;1.95;;
37379;SDS011;23252;-33.992;18.480;2022-09-27T16:41:56;6.40;;;1.83;;
37379;SDS011;23252;-33.992;18.480;2022-09-27T16:44:29;7.45;;;1.65;;
37379;SDS011;23252;-33.992;18.480;2022-09-27T16:46:55;6.70;;;1.40;;
37379;SDS011;23252;-33.992;18.480;2022-09-27T16:49:25;6.03;;;1.40;;
37379;SDS011;23252;-33.992;18.480;2022-09-27T16:52:10;4.38;;;1.65;;
37379;SDS011;23252;-33.992;18.480;2022-09-27T16:54:39;8.70;;;1.90;;
37379;SDS011;23252;-33.992;18.480;2022-09-27T16:57:12;7.32;;;1.98;;
37379;SDS011;23252;-33.992;18.480;2022-09-27T16:59:39;9.70;;;2.83;;
37379;SDS011;23252;-33.992;18.480;2022-09-27T17:02:08;11.18;;;2.72;;
37379;SDS011;23252;-33.992;18.480;2022-09-27T17:04:35;10.80;;;2.90;;
37379;SDS011;23252;-33.992;18.480;2022-09-27T17:07:05;10.95;;;2.95;;
37379;SDS011;23252;-33.992;18.480;2022-09-27T17:09:31;7.72;;;2.80;;
37379;SDS011;23252;-33.992;18.480;2022-09-27T17:11:58;10.17;;;2.10;;
37379;SDS011;23252;-33.992;18.480;2022-09-27T17:14:28;7.47;;;1.90;;
37379;SDS011;23252;-33.992;18.480;2022-09-27T17:16:57;11.90;;;1.75;;
37379;SDS011;23252;-33.992;18.480;2022-09-27T17:19:30;6.22;;;1.65;;
37379;SDS011;23252;-33.992;18.480;2022-09-27T17:21:57;5.63;;;2.05;;
37379;SDS011;23252;-33.992;18.480;2022-09-27T17:26:50;11.43;;;2.90;;
37379;SDS011;23252;-33.992;18.480;2022-09-27T17:29:20;8.25;;;2.67;;
37379;SDS011;23252;-33.992;18.480;2022-09-27T17:31:49;12.05;;;3.17;;
37379;SDS011;23252;-33.992;18.480;2022-09-27T17:34:16;16.42;;;3.95;;
37379;SDS011;23252;-33.992;18.480;2022-09-27T17:36:44;14.65;;;4.13;;
37379;SDS011;23252;-33.992;18.480;2022-09-27T17:39:15;16.40;;;4.47;;
37379;SDS011;23252;-33.992;18.480;2022-09-27T17:41:46;15.05;;;4.22;;
37379;SDS011;23252;-33.992;18.480;2022-09-27T17:44:14;20.42;;;4.78;;
37379;SDS011;23252;-33.992;18.480;2022-09-27T17:46:44;20.20;;;5.15;;